createdAt,value
2017-02-19T00:00:08.531Z,4.98
2017-02-19T00:01:08.070Z,4.94
2017-02-19T00:02:08.833Z,4.96
2017-02-19T00:03:08.800Z,4.94
2017-02-19T00:04:08.388Z,4.84
2017-02-19T00:05:08.433Z,4.99
2017-02-19T00:06:08.360Z,4.98
2017-02-19T00:07:08.328Z,5.06
2017-02-19T00:08:08.274Z,4.92
2017-02-19T00:09:08.275Z,4.77
2017-02-19T00:10:08.617Z,4.91
2017-02-19T00:11:08.216Z,5.03
2017-02-19T00:12:08.584Z,5.17
2017-02-19T00:13:07.783Z,5.17
2017-02-19T00:14:08.117Z,5.16
2017-02-19T00:15:08.553Z,4.94
2017-02-19T00:16:08.523Z,5.09
2017-02-19T00:17:08.457Z,5.2
2017-02-19T00:18:08.052Z,5.13
2017-02-19T00:19:08.483Z,5.24
2017-02-19T00:20:08.412Z,5.13
2017-02-19T00:21:08.380Z,5.06
2017-02-19T00:22:08.409Z,5.09
2017-02-19T00:23:08.307Z,5.11
2017-02-19T00:24:08.318Z,5.02
2017-02-19T00:25:07.876Z,5.02
2017-02-19T00:26:08.236Z,5.06
2017-02-19T00:27:07.822Z,5.13
2017-02-19T00:28:08.179Z,4.95
2017-02-19T00:29:07.395Z,4.98
2017-02-19T00:30:07.744Z,4.99
2017-02-19T00:31:07.322Z,5.01
2017-02-19T00:32:07.698Z,4.99
2017-02-19T00:33:08.052Z,4.99
2017-02-19T00:34:08.072Z,4.98
2017-02-19T00:35:07.611Z,5.06
2017-02-19T00:36:07.986Z,5.1
2017-02-19T00:37:07.951Z,5.13
2017-02-19T00:38:07.547Z,5.1
2017-02-19T00:39:07.920Z,5.13
2017-02-19T00:40:07.486Z,5.21
2017-02-19T00:41:07.488Z,5.13
2017-02-19T00:42:07.872Z,5.14
2017-02-19T00:43:07.409Z,5.09
2017-02-19T00:44:07.799Z,5.13
2017-02-19T00:45:07.774Z,5.24
2017-02-19T00:46:07.727Z,5.24
2017-02-19T00:47:07.317Z,5.13
2017-02-19T00:48:07.325Z,5.14
2017-02-19T00:49:07.284Z,5.09
2017-02-19T00:50:07.635Z,5.16
2017-02-19T00:51:07.617Z,5.06
2017-02-19T00:52:07.203Z,5.21
2017-02-19T00:53:06.784Z,5.23
2017-02-19T00:54:07.549Z,5.21
2017-02-19T00:55:07.125Z,5.1
2017-02-19T00:56:07.493Z,5.19
2017-02-19T00:57:07.094Z,5.13
2017-02-19T00:58:07.453Z,5.1
2017-02-19T00:59:07.038Z,5.06
2017-02-19T01:00:07.406Z,5.09
2017-02-19T01:01:06.598Z,5.11
2017-02-19T01:02:07.347Z,5.03
2017-02-19T01:03:07.328Z,4.94
2017-02-19T01:04:06.570Z,4.8
2017-02-19T01:05:06.886Z,4.7
2017-02-19T01:06:06.851Z,4.76
2017-02-19T01:07:07.226Z,4.76
2017-02-19T01:08:07.233Z,4.88
2017-02-19T01:09:07.179Z,4.91
2017-02-19T01:10:07.146Z,4.94
2017-02-19T01:11:07.112Z,4.87
2017-02-19T01:12:07.114Z,4.85
2017-02-19T01:13:07.078Z,4.8
2017-02-19T01:14:07.040Z,4.75
2017-02-19T01:15:07.031Z,4.85
2017-02-19T01:16:06.614Z,4.7
2017-02-19T01:17:06.616Z,4.75
2017-02-19T01:18:06.571Z,4.77
2017-02-19T01:19:06.949Z,4.64
2017-02-19T01:20:06.916Z,4.72
2017-02-19T01:21:06.893Z,4.67
2017-02-19T01:22:06.478Z,4.68
2017-02-19T01:23:06.876Z,4.68
2017-02-19T01:24:06.427Z,4.67
2017-02-19T01:25:06.797Z,4.61
2017-02-19T01:26:06.377Z,4.46
2017-02-19T01:27:06.353Z,4.5
2017-02-19T01:28:06.385Z,4.43
2017-02-19T01:29:06.715Z,4.54
2017-02-19T01:30:06.304Z,4.5
2017-02-19T01:31:05.861Z,4.59
2017-02-19T01:32:06.616Z,4.62
2017-02-19T01:33:06.581Z,4.75
2017-02-19T01:34:06.571Z,4.75
2017-02-19T01:35:06.153Z,4.87
2017-02-19T01:36:06.550Z,4.76
2017-02-19T01:37:06.494Z,4.79
2017-02-19T01:38:06.579Z,4.5
2017-02-19T01:39:06.508Z,4.59
2017-02-19T01:40:06.037Z,4.54
2017-02-19T01:41:06.403Z,4.7
2017-02-19T01:42:06.437Z,4.67
2017-02-19T01:43:06.338Z,4.83
2017-02-19T01:44:06.327Z,4.58
2017-02-19T01:45:05.913Z,4.58
2017-02-19T01:46:05.894Z,4.7
2017-02-19T01:47:06.234Z,4.65
2017-02-19T01:48:06.245Z,4.58
2017-02-19T01:49:06.252Z,4.58
2017-02-19T01:50:06.174Z,4.64
2017-02-19T01:51:05.758Z,4.52
2017-02-19T01:52:05.352Z,4.44
2017-02-19T01:53:05.711Z,4.43
2017-02-19T01:54:06.061Z,4.37
2017-02-19T01:55:05.661Z,4.47
2017-02-19T01:56:06.009Z,4.32
2017-02-19T01:57:06.014Z,4.46
2017-02-19T01:58:05.967Z,4.39
2017-02-19T01:59:05.574Z,4.19
2017-02-19T02:00:05.926Z,4.22
2017-02-19T02:01:05.894Z,4.19
2017-02-19T02:02:05.480Z,4.16
2017-02-19T02:03:05.844Z,4.29
2017-02-19T02:04:05.444Z,4.34
2017-02-19T02:05:05.794Z,4.37
2017-02-19T02:06:05.762Z,4.19
2017-02-19T02:07:05.360Z,4.08
2017-02-19T02:08:04.946Z,4.01
2017-02-19T02:09:05.677Z,4.11
2017-02-19T02:10:05.671Z,4.08
2017-02-19T02:11:05.641Z,4.18
2017-02-19T02:12:05.241Z,4.18
2017-02-19T02:13:05.262Z,4.18
2017-02-19T02:14:05.559Z,4.21
2017-02-19T02:15:04.775Z,4.07
2017-02-19T02:16:05.525Z,3.98
2017-02-19T02:17:05.484Z,4.01
2017-02-19T02:18:04.670Z,4.13
2017-02-19T02:19:05.444Z,3.97
2017-02-19T02:20:05.005Z,3.97
2017-02-19T02:21:04.684Z,3.95
2017-02-19T02:22:04.974Z,3.79
2017-02-19T02:23:04.937Z,3.89
2017-02-19T02:24:04.911Z,3.98
2017-02-19T02:25:04.873Z,4.01
2017-02-19T02:26:04.849Z,3.93
2017-02-19T02:27:04.921Z,4.08
2017-02-19T02:28:05.211Z,4.19
2017-02-19T02:29:05.149Z,4.1
2017-02-19T02:30:04.762Z,4.16
2017-02-19T02:31:05.099Z,4.44
2017-02-19T02:32:05.109Z,4.55
2017-02-19T02:33:04.311Z,4.55
2017-02-19T02:34:05.044Z,4.59
2017-02-19T02:35:04.627Z,4.52
2017-02-19T02:36:04.586Z,4.59
2017-02-19T02:37:04.974Z,4.5
2017-02-19T02:38:04.544Z,4.65
2017-02-19T02:39:04.151Z,4.65
2017-02-19T02:40:04.897Z,4.61
2017-02-19T02:41:04.854Z,4.59
2017-02-19T02:42:04.446Z,4.68
2017-02-19T02:43:04.453Z,4.73
2017-02-19T02:44:04.794Z,4.8
2017-02-19T02:45:03.993Z,4.73
2017-02-19T02:46:04.730Z,4.77
2017-02-19T02:47:04.710Z,4.72
2017-02-19T02:48:04.295Z,4.72
2017-02-19T02:49:04.266Z,4.72
2017-02-19T02:50:04.620Z,4.79
2017-02-19T02:51:04.623Z,4.76
2017-02-19T02:52:04.601Z,4.75
2017-02-19T02:53:03.788Z,4.83
2017-02-19T02:54:04.516Z,4.87
2017-02-19T02:55:04.116Z,4.84
2017-02-19T02:56:04.095Z,4.94
2017-02-19T02:57:04.086Z,4.8
2017-02-19T02:58:04.053Z,4.91
2017-02-19T02:59:04.031Z,4.85
2017-02-19T03:00:03.623Z,4.77
2017-02-19T03:01:03.985Z,4.85
2017-02-19T03:02:04.357Z,4.92
2017-02-19T03:03:03.921Z,4.83
2017-02-19T03:04:03.893Z,4.7
2017-02-19T03:05:03.858Z,4.67
2017-02-19T03:06:03.859Z,4.77
2017-02-19T03:07:03.451Z,4.8
2017-02-19T03:08:04.190Z,4.91
2017-02-19T03:09:03.770Z,5.01
2017-02-19T03:10:03.748Z,4.94
2017-02-19T03:11:04.112Z,4.84
2017-02-19T03:12:03.697Z,4.76
2017-02-19T03:13:03.293Z,4.83
2017-02-19T03:14:03.646Z,4.95
2017-02-19T03:15:04.012Z,4.95
2017-02-19T03:16:03.605Z,4.85
2017-02-19T03:17:03.957Z,4.95
2017-02-19T03:18:03.934Z,5.01
2017-02-19T03:19:03.524Z,4.92
2017-02-19T03:20:03.522Z,5.09
2017-02-19T03:21:03.852Z,5.11
2017-02-19T03:22:03.914Z,5.19
2017-02-19T03:23:03.428Z,4.95
2017-02-19T03:24:03.782Z,4.84
2017-02-19T03:25:03.750Z,4.77
2017-02-19T03:26:03.349Z,4.77
2017-02-19T03:27:03.322Z,4.92
2017-02-19T03:28:03.687Z,4.91
2017-02-19T03:29:03.655Z,4.85
2017-02-19T03:30:03.007Z,4.76
2017-02-19T03:31:03.213Z,4.96
2017-02-19T03:32:03.196Z,4.92
2017-02-19T03:33:03.173Z,4.87
2017-02-19T03:34:03.538Z,4.87
2017-02-19T03:35:03.505Z,4.91
2017-02-19T03:36:03.482Z,4.94
2017-02-19T03:37:03.458Z,4.88
2017-02-19T03:38:03.054Z,4.88
2017-02-19T03:39:03.412Z,5.02
2017-02-19T03:40:03.371Z,4.96
2017-02-19T03:41:03.351Z,4.98
2017-02-19T03:42:02.953Z,4.91
2017-02-19T03:43:02.531Z,4.91
2017-02-19T03:44:03.290Z,4.77
2017-02-19T03:45:02.868Z,4.75
2017-02-19T03:46:02.980Z,4.68
2017-02-19T03:47:02.419Z,4.8
2017-02-19T03:48:03.169Z,4.77
2017-02-19T03:49:03.143Z,4.72
2017-02-19T03:50:02.855Z,4.76
2017-02-19T03:51:03.106Z,4.77
2017-02-19T03:52:03.070Z,4.88
2017-02-19T03:53:03.055Z,4.83
2017-02-19T03:54:03.017Z,4.75
2017-02-19T03:55:02.604Z,4.83
2017-02-19T03:56:02.586Z,4.7
2017-02-19T03:57:02.673Z,4.75
2017-02-19T03:58:02.532Z,4.72
2017-02-19T03:59:02.535Z,4.75
2017-02-19T04:00:02.880Z,4.64
2017-02-19T04:01:02.855Z,4.75
2017-02-19T04:02:02.433Z,4.91
2017-02-19T04:03:02.410Z,4.75
2017-02-19T04:04:02.779Z,4.84
2017-02-19T04:05:02.760Z,4.77
2017-02-19T04:06:02.722Z,4.88
2017-02-19T04:07:02.306Z,4.73
2017-02-19T04:08:02.327Z,4.76
2017-02-19T04:09:02.657Z,4.84
2017-02-19T04:10:02.265Z,4.77
2017-02-19T04:11:02.612Z,4.88
2017-02-19T04:12:01.869Z,4.88
2017-02-19T04:13:02.177Z,4.88
2017-02-19T04:14:02.534Z,5.01
2017-02-19T04:15:02.495Z,4.95
2017-02-19T04:16:02.473Z,4.95
2017-02-19T04:17:02.083Z,4.72
2017-02-19T04:18:02.043Z,4.83
2017-02-19T04:19:02.022Z,4.7
2017-02-19T04:20:02.361Z,4.75
2017-02-19T04:21:01.962Z,4.83
2017-02-19T04:22:02.321Z,4.76
2017-02-19T04:23:01.510Z,4.64
2017-02-19T04:24:01.880Z,4.84
2017-02-19T04:25:01.858Z,4.88
2017-02-19T04:26:01.830Z,4.79
2017-02-19T04:27:02.209Z,4.91
2017-02-19T04:28:01.786Z,4.87
2017-02-19T04:29:02.226Z,4.73
2017-02-19T04:30:01.726Z,4.75
2017-02-19T04:31:02.095Z,4.57
2017-02-19T04:32:02.101Z,4.65
2017-02-19T04:33:01.645Z,4.62
2017-02-19T04:34:02.014Z,4.7
2017-02-19T04:35:02.104Z,4.75
2017-02-19T04:36:01.584Z,4.76
2017-02-19T04:37:01.943Z,4.79
2017-02-19T04:38:01.549Z,4.83
2017-02-19T04:39:01.992Z,4.77
2017-02-19T04:40:01.882Z,4.79
2017-02-19T04:41:01.864Z,4.83
2017-02-19T04:42:01.430Z,4.83
2017-02-19T04:43:01.409Z,4.76
2017-02-19T04:44:01.765Z,4.85
2017-02-19T04:45:01.336Z,4.77
2017-02-19T04:46:01.718Z,4.79
2017-02-19T04:47:01.315Z,4.79
2017-02-19T04:48:01.667Z,4.76
2017-02-19T04:49:01.646Z,4.84
2017-02-19T04:50:01.626Z,4.91
2017-02-19T04:51:01.594Z,4.77
2017-02-19T04:52:00.795Z,4.7
2017-02-19T04:53:01.148Z,4.73
2017-02-19T04:54:01.135Z,4.83
2017-02-19T04:55:01.184Z,4.84
2017-02-19T04:56:01.075Z,4.77
2017-02-19T04:57:01.048Z,4.79
2017-02-19T04:58:01.412Z,4.49
2017-02-19T04:59:01.092Z,4.61
2017-02-19T05:00:01.363Z,4.72
2017-02-19T05:01:01.351Z,4.75
2017-02-19T05:02:01.328Z,4.75
2017-02-19T05:03:01.289Z,4.68
2017-02-19T05:04:00.879Z,4.52
2017-02-19T05:05:01.230Z,4.55
2017-02-19T05:06:01.207Z,4.55
2017-02-19T05:07:01.186Z,4.72
2017-02-19T05:08:01.187Z,4.67
2017-02-19T05:09:01.126Z,4.65
2017-02-19T05:10:00.723Z,4.64
2017-02-19T05:11:00.706Z,4.52
2017-02-19T05:12:01.065Z,4.59
2017-02-19T05:13:01.054Z,4.68
2017-02-19T05:14:01.003Z,4.55
2017-02-19T05:15:00.984Z,4.57
2017-02-19T05:16:00.582Z,4.5
2017-02-19T05:17:00.552Z,4.44
2017-02-19T05:18:00.532Z,4.55
2017-02-19T05:19:00.890Z,4.64
2017-02-19T05:20:00.860Z,4.62
2017-02-19T05:21:00.829Z,4.68
2017-02-19T05:22:00.809Z,4.52
2017-02-19T05:23:00.388Z,4.55
2017-02-19T05:24:00.756Z,4.57
2017-02-19T05:25:00.368Z,4.65
2017-02-19T05:26:00.329Z,4.59
2017-02-19T05:27:00.697Z,4.59
2017-02-19T05:28:00.277Z,4.64
2017-02-19T05:29:00.637Z,4.79
2017-02-19T05:30:00.620Z,4.83
2017-02-19T05:31:00.195Z,4.79
2017-02-19T05:32:00.165Z,4.7
2017-02-19T05:33:00.543Z,4.85
2017-02-19T05:34:00.504Z,4.76
2017-02-19T05:35:00.462Z,4.67
2017-02-19T05:36:00.062Z,4.72
2017-02-19T05:37:00.076Z,4.88
2017-02-19T05:38:00.402Z,4.92
2017-02-19T05:38:59.991Z,4.75
2017-02-19T05:39:59.960Z,4.77
2017-02-19T05:41:00.321Z,4.75
2017-02-19T05:42:00.299Z,4.64
2017-02-19T05:43:00.288Z,4.67
2017-02-19T05:43:59.874Z,4.62
2017-02-19T05:44:59.851Z,4.76
2017-02-19T05:46:00.222Z,4.87
2017-02-19T05:47:00.187Z,4.8
2017-02-19T05:47:59.776Z,4.79
2017-02-19T05:48:59.741Z,4.84
2017-02-19T05:50:00.145Z,4.67
2017-02-19T05:51:00.063Z,4.72
2017-02-19T05:51:59.673Z,4.79
2017-02-19T05:53:00.043Z,4.8
2017-02-19T05:54:00.004Z,4.72
2017-02-19T05:54:59.601Z,4.77
2017-02-19T05:55:59.561Z,4.79
2017-02-19T05:56:59.952Z,4.72
2017-02-19T05:57:59.922Z,4.65
2017-02-19T05:58:59.492Z,4.76
2017-02-19T05:59:59.850Z,4.77
2017-02-19T06:00:59.828Z,4.7
2017-02-19T06:01:59.479Z,4.7
2017-02-19T06:02:59.403Z,4.73
2017-02-19T06:03:59.764Z,4.72
2017-02-19T06:04:58.985Z,4.68
2017-02-19T06:05:59.326Z,4.7
2017-02-19T06:06:59.306Z,4.55
2017-02-19T06:07:59.269Z,4.67
2017-02-19T06:08:59.625Z,4.79
2017-02-19T06:09:59.595Z,4.76
2017-02-19T06:10:59.194Z,4.87
2017-02-19T06:11:59.550Z,4.77
2017-02-19T06:12:59.142Z,4.84
2017-02-19T06:13:59.502Z,4.83
2017-02-19T06:14:59.090Z,4.72
2017-02-19T06:15:59.460Z,4.87
2017-02-19T06:16:59.037Z,4.84
2017-02-19T06:17:59.103Z,4.88
2017-02-19T06:18:59.375Z,4.91
2017-02-19T06:19:58.960Z,4.95
2017-02-19T06:20:58.940Z,4.98
2017-02-19T06:21:59.312Z,4.95
2017-02-19T06:22:59.276Z,5.09
2017-02-19T06:23:59.241Z,5.03
2017-02-19T06:24:58.857Z,5.11
2017-02-19T06:25:58.501Z,4.98
2017-02-19T06:26:59.186Z,5.02
2017-02-19T06:27:59.153Z,4.98
2017-02-19T06:28:59.118Z,4.96
2017-02-19T06:29:58.470Z,4.96
2017-02-19T06:30:59.081Z,4.85
2017-02-19T06:31:58.673Z,4.85
2017-02-19T06:32:59.026Z,4.85
2017-02-19T06:33:59.017Z,4.94
2017-02-19T06:34:58.594Z,4.87
2017-02-19T06:35:58.940Z,4.85
2017-02-19T06:36:58.928Z,4.75
2017-02-19T06:37:58.917Z,4.95
2017-02-19T06:38:58.867Z,4.85
2017-02-19T06:39:58.459Z,4.95
2017-02-19T06:40:58.841Z,4.96
2017-02-19T06:41:58.418Z,4.87
2017-02-19T06:42:58.411Z,4.84
2017-02-19T06:43:58.357Z,4.84
2017-02-19T06:44:58.328Z,4.91
2017-02-19T06:45:58.314Z,4.85
2017-02-19T06:46:58.285Z,4.94
2017-02-19T06:47:58.254Z,5.03
2017-02-19T06:48:58.654Z,5.14
2017-02-19T06:49:58.194Z,5.19
2017-02-19T06:50:58.566Z,5.09
2017-02-19T06:51:58.547Z,5.23
2017-02-19T06:52:58.149Z,5.2
2017-02-19T06:53:58.501Z,5.13
2017-02-19T06:54:58.088Z,4.92
2017-02-19T06:55:58.463Z,4.99
2017-02-19T06:56:58.057Z,5.02
2017-02-19T06:57:58.006Z,4.88
2017-02-19T06:58:58.358Z,4.91
2017-02-19T06:59:57.989Z,4.83
2017-02-19T07:00:58.319Z,4.84
2017-02-19T07:01:57.897Z,4.95
2017-02-19T07:02:58.290Z,5.03
2017-02-19T07:03:58.252Z,5.09
2017-02-19T07:04:58.275Z,4.98
2017-02-19T07:05:58.235Z,5.1
2017-02-19T07:06:58.196Z,5.11
2017-02-19T07:07:58.134Z,5.13
2017-02-19T07:08:57.723Z,4.98
2017-02-19T07:09:58.092Z,4.92
2017-02-19T07:10:58.111Z,4.99
2017-02-19T07:11:57.650Z,5.09
2017-02-19T07:12:58.031Z,5.09
2017-02-19T07:13:57.990Z,5.01
2017-02-19T07:14:57.980Z,5.2
2017-02-19T07:15:57.929Z,5.03
2017-02-19T07:16:57.548Z,5.11
2017-02-19T07:17:57.903Z,5.14
2017-02-19T07:18:57.498Z,5.06
2017-02-19T07:19:57.456Z,5.1
2017-02-19T07:20:57.827Z,5.14
2017-02-19T07:21:57.807Z,5.1
2017-02-19T07:22:57.766Z,5.01
2017-02-19T07:23:57.745Z,5.01
2017-02-19T07:24:57.735Z,4.92
2017-02-19T07:25:57.707Z,4.96
2017-02-19T07:26:57.294Z,5.03
2017-02-19T07:27:57.642Z,5.13
2017-02-19T07:28:57.604Z,5.05
2017-02-19T07:29:57.581Z,5.02
2017-02-19T07:30:57.234Z,5.01
2017-02-19T07:31:57.191Z,4.95
2017-02-19T07:32:57.261Z,5.13
2017-02-19T07:33:57.491Z,5.05
2017-02-19T07:34:57.480Z,5.03
2017-02-19T07:35:57.041Z,4.99
2017-02-19T07:36:57.407Z,5.09
2017-02-19T07:37:56.997Z,5.2
2017-02-19T07:38:56.975Z,5.13
2017-02-19T07:39:56.956Z,5.23
2017-02-19T07:40:56.977Z,5.21
2017-02-19T07:41:56.895Z,5.24
2017-02-19T07:42:56.881Z,5.23
2017-02-19T07:43:56.463Z,5.31
2017-02-19T07:44:57.214Z,5.35
2017-02-19T07:45:56.887Z,5.31
2017-02-19T07:46:56.507Z,5.34
2017-02-19T07:47:57.152Z,5.37
2017-02-19T07:48:57.111Z,5.39
2017-02-19T07:49:57.080Z,5.34
2017-02-19T07:50:56.669Z,5.34
2017-02-19T07:51:56.659Z,5.37
2017-02-19T07:52:56.633Z,5.35
2017-02-19T07:53:57.009Z,5.34
2017-02-19T07:54:56.980Z,5.41
2017-02-19T07:55:56.164Z,5.39
2017-02-19T07:56:56.145Z,5.34
2017-02-19T07:57:56.888Z,5.44
2017-02-19T07:58:56.866Z,5.5
2017-02-19T07:59:56.455Z,5.7
2017-02-19T08:00:56.839Z,5.63
2017-02-19T08:01:56.792Z,5.62
2017-02-19T08:02:56.782Z,5.7
2017-02-19T08:03:56.364Z,5.57
2017-02-19T08:04:56.724Z,5.63
2017-02-19T08:05:56.328Z,5.67
2017-02-19T08:06:56.713Z,5.71
2017-02-19T08:07:56.667Z,5.71
2017-02-19T08:08:56.611Z,5.65
2017-02-19T08:09:56.591Z,5.65
2017-02-19T08:10:56.575Z,5.67
2017-02-19T08:11:56.570Z,5.75
2017-02-19T08:12:56.140Z,5.88
2017-02-19T08:13:56.128Z,5.92
2017-02-19T08:14:56.083Z,5.78
2017-02-19T08:15:56.056Z,5.83
2017-02-19T08:16:56.429Z,5.78
2017-02-19T08:17:56.397Z,5.78
2017-02-19T08:18:56.378Z,5.7
2017-02-19T08:19:56.355Z,5.68
2017-02-19T08:20:56.321Z,5.74
2017-02-19T08:21:55.932Z,5.89
2017-02-19T08:22:56.284Z,5.9
2017-02-19T08:23:56.286Z,5.89
2017-02-19T08:24:56.234Z,5.93
2017-02-19T08:25:56.223Z,5.98
2017-02-19T08:26:55.791Z,6
2017-02-19T08:27:56.142Z,6.08
2017-02-19T08:28:55.747Z,6.06
2017-02-19T08:29:55.728Z,6.03
2017-02-19T08:30:55.690Z,5.92
2017-02-19T08:31:56.089Z,6
2017-02-19T08:32:56.038Z,6.16
2017-02-19T08:33:56.028Z,6.25
2017-02-19T08:34:55.589Z,6.22
2017-02-19T08:35:55.567Z,6.14
2017-02-19T08:36:55.546Z,6.1
2017-02-19T08:37:55.546Z,6.33
2017-02-19T08:38:55.506Z,6.14
2017-02-19T08:39:55.945Z,6.11
2017-02-19T08:40:55.845Z,6.22
2017-02-19T08:41:55.445Z,6.3
2017-02-19T08:42:55.798Z,6.37
2017-02-19T08:43:55.393Z,6.32
2017-02-19T08:44:54.958Z,6.47
2017-02-19T08:45:55.333Z,6.51
2017-02-19T08:46:55.303Z,6.57
2017-02-19T08:47:55.271Z,6.44
2017-02-19T08:48:55.653Z,6.47
2017-02-19T08:49:54.858Z,6.52
2017-02-19T08:50:55.210Z,6.47
2017-02-19T08:51:55.570Z,6.59
2017-02-19T08:52:55.540Z,6.66
2017-02-19T08:53:55.530Z,6.43
2017-02-19T08:54:55.509Z,6.55
2017-02-19T08:55:55.498Z,6.63
2017-02-19T08:56:55.446Z,6.65
2017-02-19T08:57:55.445Z,6.55
2017-02-19T08:58:55.014Z,6.51
2017-02-19T08:59:55.376Z,6.62
2017-02-19T09:00:54.964Z,6.66
2017-02-19T09:01:54.988Z,6.65
2017-02-19T09:02:54.931Z,6.6
2017-02-19T09:03:55.279Z,6.73
2017-02-19T09:04:55.361Z,6.68
2017-02-19T09:05:55.255Z,6.66
2017-02-19T09:06:55.222Z,6.63
2017-02-19T09:07:54.801Z,6.69
2017-02-19T09:08:55.172Z,6.78
2017-02-19T09:09:54.784Z,6.8
2017-02-19T09:10:54.769Z,6.81
2017-02-19T09:11:55.100Z,6.87
2017-02-19T09:12:54.688Z,6.86
2017-02-19T09:13:54.759Z,6.98
2017-02-19T09:14:55.023Z,6.93
2017-02-19T09:15:54.612Z,6.96
2017-02-19T09:16:54.975Z,6.9
2017-02-19T09:17:54.949Z,6.68
2017-02-19T09:18:54.588Z,6.83
2017-02-19T09:19:54.907Z,6.8
2017-02-19T09:20:54.506Z,6.66
2017-02-19T09:21:54.499Z,6.72
2017-02-19T09:22:54.874Z,6.72
2017-02-19T09:23:54.425Z,6.78
2017-02-19T09:24:54.779Z,6.87
2017-02-19T09:25:54.762Z,6.8
2017-02-19T09:26:54.741Z,6.81
2017-02-19T09:27:54.340Z,6.94
2017-02-19T09:28:54.701Z,6.72
2017-02-19T09:29:54.289Z,6.86
2017-02-19T09:30:54.258Z,6.98
2017-02-19T09:31:54.229Z,6.94
2017-02-19T09:32:54.589Z,7.09
2017-02-19T09:33:54.199Z,7.02
2017-02-19T09:34:54.566Z,6.86
2017-02-19T09:35:54.129Z,6.8
2017-02-19T09:36:54.493Z,6.9
2017-02-19T09:37:54.075Z,6.9
2017-02-19T09:38:54.070Z,7.08
2017-02-19T09:39:54.048Z,7.05
2017-02-19T09:40:54.401Z,6.87
2017-02-19T09:41:54.392Z,6.87
2017-02-19T09:42:53.980Z,6.88
2017-02-19T09:43:54.352Z,7.05
2017-02-19T09:44:54.311Z,7.04
2017-02-19T09:45:54.290Z,7.2
2017-02-19T09:46:54.292Z,7.17
2017-02-19T09:47:54.240Z,7.24
2017-02-19T09:48:53.811Z,7.12
2017-02-19T09:49:54.201Z,7.21
2017-02-19T09:50:54.198Z,7.14
2017-02-19T09:51:54.146Z,7.17
2017-02-19T09:52:54.131Z,7.14
2017-02-19T09:53:53.330Z,7.12
2017-02-19T09:54:54.069Z,7.16
2017-02-19T09:55:54.051Z,7.12
2017-02-19T09:56:54.035Z,7.09
2017-02-19T09:57:53.995Z,7.26
2017-02-19T09:58:53.685Z,7.26
2017-02-19T09:59:53.950Z,7.42
2017-02-19T10:00:54.643Z,7.41
2017-02-19T10:01:53.520Z,7.62
2017-02-19T10:02:53.883Z,7.72
2017-02-19T10:03:53.480Z,7.81
2017-02-19T10:04:53.333Z,7.7
2017-02-19T10:05:53.811Z,7.76
2017-02-19T10:06:53.460Z,7.76
2017-02-19T10:07:53.801Z,7.68
2017-02-19T10:08:53.393Z,7.56
2017-02-19T10:09:53.337Z,7.59
2017-02-19T10:10:53.754Z,7.72
2017-02-19T10:11:53.696Z,7.78
2017-02-19T10:12:53.676Z,7.83
2017-02-19T10:13:53.716Z,7.76
2017-02-19T10:14:53.639Z,7.7
2017-02-19T10:15:53.598Z,7.64
2017-02-19T10:16:53.245Z,7.55
2017-02-19T10:17:53.153Z,7.48
2017-02-19T10:18:53.574Z,7.59
2017-02-19T10:19:52.722Z,7.72
2017-02-19T10:20:53.462Z,7.75
2017-02-19T10:21:53.163Z,7.76
2017-02-19T10:22:53.442Z,7.72
2017-02-19T10:23:53.462Z,7.64
2017-02-19T10:24:53.451Z,7.63
2017-02-19T10:25:52.982Z,7.76
2017-02-19T10:26:53.350Z,7.78
2017-02-19T10:27:53.329Z,7.94
2017-02-19T10:28:52.925Z,7.88
2017-02-19T10:29:52.881Z,7.9
2017-02-19T10:30:52.926Z,7.78
2017-02-19T10:31:53.227Z,7.76
2017-02-19T10:32:52.901Z,7.6
2017-02-19T10:33:52.830Z,7.72
2017-02-19T10:34:52.776Z,7.76
2017-02-19T10:35:53.300Z,7.88
2017-02-19T10:36:52.756Z,8.03
2017-02-19T10:37:52.734Z,8.07
2017-02-19T10:38:53.094Z,7.99
2017-02-19T10:39:52.644Z,8.03
2017-02-19T10:40:52.635Z,7.96
2017-02-19T10:41:52.617Z,7.96
2017-02-19T10:42:52.607Z,7.94
2017-02-19T10:43:52.610Z,7.99
2017-02-19T10:44:52.986Z,8.04
2017-02-19T10:45:52.901Z,8
2017-02-19T10:46:52.924Z,8.11
2017-02-19T10:47:52.510Z,8.14
2017-02-19T10:48:52.880Z,8.22
2017-02-19T10:49:52.430Z,8.29
2017-02-19T10:50:52.879Z,8.33
2017-02-19T10:51:52.852Z,8.19
2017-02-19T10:52:52.803Z,8.11
2017-02-19T10:53:52.345Z,8.04
2017-02-19T10:54:52.767Z,7.93
2017-02-19T10:55:52.709Z,7.97
2017-02-19T10:56:52.655Z,7.97
2017-02-19T10:57:52.722Z,7.99
2017-02-19T10:58:52.224Z,8.07
2017-02-19T10:59:52.613Z,7.96
2017-02-19T11:00:52.581Z,8
2017-02-19T11:01:52.583Z,7.94
2017-02-19T11:02:52.133Z,7.96
2017-02-19T11:03:52.120Z,7.94
2017-02-19T11:04:52.068Z,7.91
2017-02-19T11:05:52.449Z,7.94
2017-02-19T11:06:52.490Z,7.96
2017-02-19T11:07:52.020Z,7.93
2017-02-19T11:08:52.007Z,7.83
2017-02-19T11:09:52.387Z,7.79
2017-02-19T11:10:51.943Z,7.82
2017-02-19T11:11:52.295Z,7.83
2017-02-19T11:12:51.895Z,7.79
2017-02-19T11:13:51.864Z,7.81
2017-02-19T11:14:51.865Z,7.9
2017-02-19T11:15:52.223Z,7.86
2017-02-19T11:16:52.215Z,7.82
2017-02-19T11:17:51.797Z,7.79
2017-02-19T11:18:52.152Z,7.81
2017-02-19T11:19:52.141Z,7.91
2017-02-19T11:20:51.736Z,7.93
2017-02-19T11:21:51.679Z,7.9
2017-02-19T11:22:52.062Z,7.75
2017-02-19T11:23:52.036Z,7.81
2017-02-19T11:24:51.619Z,7.72
2017-02-19T11:25:51.618Z,7.78
2017-02-19T11:26:51.966Z,7.81
2017-02-19T11:27:51.949Z,7.7
2017-02-19T11:28:51.172Z,7.78
2017-02-19T11:29:51.508Z,7.78
2017-02-19T11:30:51.529Z,7.79
2017-02-19T11:31:51.853Z,7.81
2017-02-19T11:32:51.838Z,7.81
2017-02-19T11:33:51.824Z,7.81
2017-02-19T11:34:51.406Z,7.78
2017-02-19T11:35:51.392Z,7.79
2017-02-19T11:36:51.759Z,7.73
2017-02-19T11:37:51.323Z,7.76
2017-02-19T11:38:51.309Z,7.72
2017-02-19T11:39:51.693Z,7.68
2017-02-19T11:40:51.658Z,7.57
2017-02-19T11:41:51.251Z,7.63
2017-02-19T11:42:50.855Z,7.57
2017-02-19T11:43:51.189Z,7.57
2017-02-19T11:44:51.569Z,7.56
2017-02-19T11:45:51.167Z,7.67
2017-02-19T11:46:51.527Z,7.56
2017-02-19T11:47:51.110Z,7.56
2017-02-19T11:48:50.799Z,7.56
2017-02-19T11:49:51.067Z,7.55
2017-02-19T11:50:51.434Z,7.57
2017-02-19T11:51:51.016Z,7.81
2017-02-19T11:52:51.007Z,7.72
2017-02-19T11:53:51.355Z,7.73
2017-02-19T11:54:51.335Z,7.45
2017-02-19T11:55:50.922Z,7.34
2017-02-19T11:56:50.608Z,7.42
2017-02-19T11:57:50.875Z,7.39
2017-02-19T11:58:50.529Z,7.59
2017-02-19T11:59:51.220Z,7.55
2017-02-19T12:00:51.198Z,7.59
2017-02-19T12:01:51.179Z,7.62
2017-02-19T12:02:50.769Z,7.59
2017-02-19T12:03:51.127Z,7.52
2017-02-19T12:04:51.105Z,7.42
2017-02-19T12:05:50.698Z,7.47
2017-02-19T12:06:50.679Z,7.44
2017-02-19T12:07:51.046Z,7.39
2017-02-19T12:08:51.014Z,7.59
2017-02-19T12:09:51.001Z,7.48
2017-02-19T12:10:50.584Z,7.27
2017-02-19T12:11:50.968Z,7.3
2017-02-19T12:12:50.912Z,7.31
2017-02-19T12:13:50.901Z,7.27
2017-02-19T12:14:50.883Z,7.29
2017-02-19T12:15:50.873Z,7.41
2017-02-19T12:16:50.833Z,7.42
2017-02-19T12:17:50.417Z,7.41
2017-02-19T12:18:50.800Z,7.45
2017-02-19T12:19:50.761Z,7.63
2017-02-19T12:20:50.754Z,7.67
2017-02-19T12:21:50.324Z,7.49
2017-02-19T12:22:50.299Z,7.31
2017-02-19T12:23:50.286Z,7.27
2017-02-19T12:24:50.650Z,7.21
2017-02-19T12:25:50.620Z,7.39
2017-02-19T12:26:50.614Z,7.42
2017-02-19T12:27:50.194Z,7.47
2017-02-19T12:28:50.554Z,7.24
2017-02-19T12:29:50.525Z,7.19
2017-02-19T12:30:50.492Z,7.19
2017-02-19T12:31:50.517Z,7.19
2017-02-19T12:32:50.463Z,7.26
2017-02-19T12:33:50.061Z,7.34
2017-02-19T12:34:50.421Z,7.19
2017-02-19T12:35:50.012Z,7.17
2017-02-19T12:36:50.360Z,6.91
2017-02-19T12:37:50.336Z,7.05
2017-02-19T12:38:49.543Z,7.01
2017-02-19T12:39:50.320Z,6.9
2017-02-19T12:40:50.278Z,6.94
2017-02-19T12:41:49.868Z,7.02
2017-02-19T12:42:50.250Z,7.05
2017-02-19T12:43:49.829Z,7.09
2017-02-19T12:44:50.183Z,6.93
2017-02-19T12:45:49.767Z,7.06
2017-02-19T12:46:50.164Z,7.08
2017-02-19T12:47:50.153Z,7.17
2017-02-19T12:48:50.125Z,7.06
2017-02-19T12:49:49.671Z,7.09
2017-02-19T12:50:50.042Z,7.09
2017-02-19T12:51:50.014Z,7.14
2017-02-19T12:52:50.015Z,7.19
2017-02-19T12:53:49.973Z,7.23
2017-02-19T12:54:49.965Z,7.31
2017-02-19T12:55:49.934Z,7.42
2017-02-19T12:56:49.533Z,7.47
2017-02-19T12:57:49.518Z,7.34
2017-02-19T12:58:49.878Z,7.3
2017-02-19T12:59:49.959Z,7.08
2017-02-19T13:00:49.815Z,7.11
2017-02-19T13:01:49.398Z,7.16
2017-02-19T13:02:49.388Z,7.2
2017-02-19T13:03:49.748Z,7.19
2017-02-19T13:04:48.934Z,7.26
2017-02-19T13:05:49.312Z,7.47
2017-02-19T13:06:49.290Z,7.3
2017-02-19T13:07:49.280Z,7.12
2017-02-19T13:08:49.252Z,7.08
2017-02-19T13:09:49.623Z,6.94
2017-02-19T13:10:49.731Z,7.08
2017-02-19T13:11:49.555Z,7.17
2017-02-19T13:12:49.604Z,7.02
2017-02-19T13:13:49.180Z,7.05
2017-02-19T13:14:49.133Z,7.09
2017-02-19T13:15:49.088Z,7.17
2017-02-19T13:16:49.447Z,7.2
2017-02-19T13:17:49.039Z,7.02
2017-02-19T13:18:49.499Z,7.05
2017-02-19T13:19:48.998Z,7.05
2017-02-19T13:20:49.371Z,7.09